Terminal Aerodrome Forecast
Issued by NWS

Home | Current Version | Previous Version | Graphics & Text | Print | Product List | Glossary On
Versions: 1 2 3 4 5 6 7 8 9 10 11 12 13 14 15 16
956
FTUS43 KIWX 051121
TAFSBN
TAF
KSBN 051121Z 0512/0612 01013KT P6SM OVC008
     FM051330 36014G22KT P6SM OVC010
     FM051600 34014G22KT P6SM SCT020
     FM060100 32003KT P6SM SKC=

USA.gov is the U.S. government's official web portal to all federal, state and local government web resources and services.